Airport View

Enter AWOS ICAO identifier for current METAR.

ex. KFNL

KEYW 202353Z 07014G23KT 10SM CLR 29/23 A2996 RMK AO2 SLP145 T02890233 10317 20289 53009

21 Sep 2019 00:29

Frequency: 119.65

Phone: 305-292-4046

Other Area AWOS: KNQX - KMTH - KMKY - MUVR

TAF KEYW 202333Z 2100/2124 08016G24KT P6SM VCSH SCT025 SCT045 FM210400 08017G25KT P6SM VCTS SCT025CB SCT045